sensor_id;sensor_type;location;lat;lon;timestamp;pressure;altitude;pressure_sealevel;temperature;humidity
62617;BME280;62539;51.190;6.808;2023-05-14T00:01:47;101563.66;;;21.60;53.21
62617;BME280;62539;51.190;6.808;2023-05-14T00:04:13;101561.00;;;21.60;53.42
62617;BME280;62539;51.190;6.808;2023-05-14T00:06:39;101560.22;;;21.58;53.26
62617;BME280;62539;51.190;6.808;2023-05-14T00:09:04;101558.47;;;21.57;53.09
62617;BME280;62539;51.190;6.808;2023-05-14T00:11:30;101554.97;;;21.56;53.19
62617;BME280;62539;51.190;6.808;2023-05-14T00:13:55;101562.03;;;21.56;53.34
62617;BME280;62539;51.190;6.808;2023-05-14T00:16:21;101557.66;;;21.55;53.03
62617;BME280;62539;51.190;6.808;2023-05-14T00:18:46;101559.44;;;21.54;53.05
62617;BME280;62539;51.190;6.808;2023-05-14T00:21:11;101557.72;;;21.53;53.47
62617;BME280;62539;51.190;6.808;2023-05-14T00:23:37;101551.59;;;21.53;53.14
62617;BME280;62539;51.190;6.808;2023-05-14T00:26:02;101544.59;;;21.52;53.38
62617;BME280;62539;51.190;6.808;2023-05-14T00:28:28;101549.84;;;21.52;53.24
62617;BME280;62539;51.190;6.808;2023-05-14T00:30:53;101541.97;;;21.50;53.19
62617;BME280;62539;51.190;6.808;2023-05-14T00:33:19;101534.13;;;21.49;53.26
62617;BME280;62539;51.190;6.808;2023-05-14T00:35:45;101534.13;;;21.49;53.16
62617;BME280;62539;51.190;6.808;2023-05-14T00:38:10;101530.69;;;21.47;53.52
62617;BME280;62539;51.190;6.808;2023-05-14T00:40:41;101529.81;;;21.46;53.24
62617;BME280;62539;51.190;6.808;2023-05-14T00:43:10;101529.88;;;21.44;53.20
62617;BME280;62539;51.190;6.808;2023-05-14T00:45:36;101528.16;;;21.43;53.52
62617;BME280;62539;51.190;6.808;2023-05-14T00:48:02;101521.19;;;21.41;53.36
62617;BME280;62539;51.190;6.808;2023-05-14T00:50:28;101527.34;;;21.41;53.17
62617;BME280;62539;51.190;6.808;2023-05-14T00:52:54;101521.25;;;21.39;53.29
62617;BME280;62539;51.190;6.808;2023-05-14T00:55:20;101529.16;;;21.39;53.33
62617;BME280;62539;51.190;6.808;2023-05-14T00:57:46;101525.72;;;21.37;53.38
62617;BME280;62539;51.190;6.808;2023-05-14T01:00:14;101520.44;;;21.37;53.13
62617;BME280;62539;51.190;6.808;2023-05-14T01:02:40;101518.72;;;21.36;53.32
62617;BME280;62539;51.190;6.808;2023-05-14T01:05:06;101518.75;;;21.35;53.50
62617;BME280;62539;51.190;6.808;2023-05-14T01:07:56;101517.94;;;21.33;53.26
62617;BME280;62539;51.190;6.808;2023-05-14T01:10:41;101512.72;;;21.31;53.14
62617;BME280;62539;51.190;6.808;2023-05-14T01:13:43;101504.00;;;21.29;53.17
62617;BME280;62539;51.190;6.808;2023-05-14T01:16:17;101508.47;;;21.27;53.30
62617;BME280;62539;51.190;6.808;2023-05-14T01:18:45;101499.75;;;21.25;53.27
62617;BME280;62539;51.190;6.808;2023-05-14T01:21:39;101499.84;;;21.22;53.28
62617;BME280;62539;51.190;6.808;2023-05-14T01:24:07;101492.00;;;21.20;52.99
62617;BME280;62539;51.190;6.808;2023-05-14T01:26:34;101497.28;;;21.20;52.96
62617;BME280;62539;51.190;6.808;2023-05-14T01:29:21;101484.19;;;21.17;53.11
62617;BME280;62539;51.190;6.808;2023-05-14T01:31:49;101487.69;;;21.18;52.98
62617;BME280;62539;51.190;6.808;2023-05-14T01:34:20;101489.50;;;21.15;53.14
62617;BME280;62539;51.190;6.808;2023-05-14T01:36:49;101491.34;;;21.13;53.12
62617;BME280;62539;51.190;6.808;2023-05-14T01:39:16;101491.34;;;21.13;53.23
62617;BME280;62539;51.190;6.808;2023-05-14T01:41:43;101489.63;;;21.12;52.90
62617;BME280;62539;51.190;6.808;2023-05-14T01:44:10;101493.16;;;21.11;52.97
62617;BME280;62539;51.190;6.808;2023-05-14T01:46:36;101494.09;;;21.10;53.09
62617;BME280;62539;51.190;6.808;2023-05-14T01:49:02;101491.50;;;21.09;52.89
62617;BME280;62539;51.190;6.808;2023-05-14T01:51:28;101489.72;;;21.09;52.95
62617;BME280;62539;51.190;6.808;2023-05-14T01:53:53;101486.28;;;21.07;52.97
62617;BME280;62539;51.190;6.808;2023-05-14T01:56:21;101492.47;;;21.06;52.68
62617;BME280;62539;51.190;6.808;2023-05-14T01:58:48;101486.38;;;21.04;52.81
62617;BME280;62539;51.190;6.808;2023-05-14T02:01:13;101482.91;;;21.04;52.76
62617;BME280;62539;51.190;6.808;2023-05-14T02:03:39;101491.72;;;21.03;53.16
62617;BME280;62539;51.190;6.808;2023-05-14T02:06:05;101485.56;;;21.02;53.08
62617;BME280;62539;51.190;6.808;2023-05-14T02:08:30;101479.47;;;21.00;52.79
62617;BME280;62539;51.190;6.808;2023-05-14T02:10:56;101483.91;;;20.99;52.99
62617;BME280;62539;51.190;6.808;2023-05-14T02:13:21;101483.09;;;20.97;52.90
62617;BME280;62539;51.190;6.808;2023-05-14T02:15:46;101487.50;;;20.97;52.87
62617;BME280;62539;51.190;6.808;2023-05-14T02:18:13;101483.13;;;20.96;52.96
62617;BME280;62539;51.190;6.808;2023-05-14T02:20:38;101490.25;;;20.94;53.01
62617;BME280;62539;51.190;6.808;2023-05-14T02:23:04;101472.69;;;20.93;52.69
62617;BME280;62539;51.190;6.808;2023-05-14T02:25:30;101477.16;;;20.91;52.69
62617;BME280;62539;51.190;6.808;2023-05-14T02:27:55;101473.66;;;20.90;52.88
62617;BME280;62539;51.190;6.808;2023-05-14T02:30:21;101476.34;;;20.89;52.98
62617;BME280;62539;51.190;6.808;2023-05-14T02:32:46;101478.13;;;20.88;52.80
62617;BME280;62539;51.190;6.808;2023-05-14T02:35:12;101479.97;;;20.86;52.79
62617;BME280;62539;51.190;6.808;2023-05-14T02:37:37;101479.06;;;20.85;53.00
62617;BME280;62539;51.190;6.808;2023-05-14T02:40:03;101486.19;;;20.83;52.74
62617;BME280;62539;51.190;6.808;2023-05-14T02:42:28;101471.28;;;20.82;52.92
62617;BME280;62539;51.190;6.808;2023-05-14T02:44:54;101480.09;;;20.81;53.13
62617;BME280;62539;51.190;6.808;2023-05-14T02:47:19;101474.81;;;20.81;52.90
62617;BME280;62539;51.190;6.808;2023-05-14T02:49:45;101477.53;;;20.80;52.86
62617;BME280;62539;51.190;6.808;2023-05-14T02:52:10;101477.56;;;20.78;52.88
62617;BME280;62539;51.190;6.808;2023-05-14T02:54:36;101474.06;;;20.78;52.90
62617;BME280;62539;51.190;6.808;2023-05-14T02:57:01;101478.44;;;20.77;53.04
62617;BME280;62539;51.190;6.808;2023-05-14T02:59:27;101481.13;;;20.76;53.03
62617;BME280;62539;51.190;6.808;2023-05-14T03:01:52;101478.53;;;20.74;53.03
62617;BME280;62539;51.190;6.808;2023-05-14T03:04:18;101476.81;;;20.73;52.75
62617;BME280;62539;51.190;6.808;2023-05-14T03:06:43;101472.44;;;20.72;52.77
62617;BME280;62539;51.190;6.808;2023-05-14T03:09:08;101477.78;;;20.70;52.69
62617;BME280;62539;51.190;6.808;2023-05-14T03:11:34;101475.19;;;20.69;52.65
62617;BME280;62539;51.190;6.808;2023-05-14T03:13:59;101482.25;;;20.68;52.96
62617;BME280;62539;51.190;6.808;2023-05-14T03:16:25;101477.00;;;20.67;52.91
62617;BME280;62539;51.190;6.808;2023-05-14T03:18:51;101471.75;;;20.67;53.11
62617;BME280;62539;51.190;6.808;2023-05-14T03:21:16;101470.88;;;20.66;52.92
62617;BME280;62539;51.190;6.808;2023-05-14T03:23:42;101473.56;;;20.65;52.92
62617;BME280;62539;51.190;6.808;2023-05-14T03:26:07;101480.63;;;20.64;53.15
62617;BME280;62539;51.190;6.808;2023-05-14T03:28:32;101475.38;;;20.63;53.17
62617;BME280;62539;51.190;6.808;2023-05-14T03:30:58;101478.94;;;20.62;52.90
62617;BME280;62539;51.190;6.808;2023-05-14T03:33:23;101482.47;;;20.61;53.06
62617;BME280;62539;51.190;6.808;2023-05-14T03:35:49;101486.91;;;20.60;53.23
62617;BME280;62539;51.190;6.808;2023-05-14T03:38:15;101488.66;;;20.60;52.87
62617;BME280;62539;51.190;6.808;2023-05-14T03:40:40;101481.72;;;20.57;53.14
62617;BME280;62539;51.190;6.808;2023-05-14T03:43:06;101486.13;;;20.56;53.11
62617;BME280;62539;51.190;6.808;2023-05-14T03:45:31;101485.28;;;20.56;52.66
62617;BME280;62539;51.190;6.808;2023-05-14T03:47:57;101475.66;;;20.55;52.96
62617;BME280;62539;51.190;6.808;2023-05-14T03:50:22;101480.94;;;20.53;53.00
62617;BME280;62539;51.190;6.808;2023-05-14T03:52:50;101479.22;;;20.52;52.99
62617;BME280;62539;51.190;6.808;2023-05-14T03:55:19;101474.88;;;20.51;53.08
62617;BME280;62539;51.190;6.808;2023-05-14T03:57:46;101477.50;;;20.51;52.95
62617;BME280;62539;51.190;6.808;2023-05-14T04:00:13;101474.94;;;20.50;52.88
62617;BME280;62539;51.190;6.808;2023-05-14T04:02:38;101474.06;;;20.49;52.96
62617;BME280;62539;51.190;6.808;2023-05-14T04:05:04;101467.06;;;20.48;52.90
62617;BME280;62539;51.190;6.808;2023-05-14T04:07:29;101469.69;;;20.48;52.78
62617;BME280;62539;51.190;6.808;2023-05-14T04:09:55;101471.50;;;20.46;52.91
62617;BME280;62539;51.190;6.808;2023-05-14T04:12:20;101473.31;;;20.46;52.91
62617;BME280;62539;51.190;6.808;2023-05-14T04:14:46;101467.16;;;20.45;52.86
62617;BME280;62539;51.190;6.808;2023-05-14T04:17:11;101461.88;;;20.45;53.12
62617;BME280;62539;51.190;6.808;2023-05-14T04:19:37;101465.44;;;20.44;53.04
62617;BME280;62539;51.190;6.808;2023-05-14T04:22:03;101467.25;;;20.42;52.76
62617;BME280;62539;51.190;6.808;2023-05-14T04:24:29;101473.41;;;20.42;52.71
62617;BME280;62539;51.190;6.808;2023-05-14T04:26:54;101467.25;;;20.42;53.14
62617;BME280;62539;51.190;6.808;2023-05-14T04:29:20;101470.78;;;20.41;52.92
62617;BME280;62539;51.190;6.808;2023-05-14T04:31:45;101478.69;;;20.41;52.99
62617;BME280;62539;51.190;6.808;2023-05-14T04:34:10;101468.22;;;20.39;52.94
62617;BME280;62539;51.190;6.808;2023-05-14T04:36:36;101469.06;;;20.40;53.21
62617;BME280;62539;51.190;6.808;2023-05-14T04:39:01;101474.34;;;20.40;53.05
62617;BME280;62539;51.190;6.808;2023-05-14T04:41:27;101467.34;;;20.39;53.01
62617;BME280;62539;51.190;6.808;2023-05-14T04:43:54;101464.72;;;20.39;53.23
62617;BME280;62539;51.190;6.808;2023-05-14T04:46:20;101467.34;;;20.39;53.13
62617;BME280;62539;51.190;6.808;2023-05-14T04:48:46;101468.22;;;20.39;53.24
62617;BME280;62539;51.190;6.808;2023-05-14T04:51:13;101462.06;;;20.39;53.14
62617;BME280;62539;51.190;6.808;2023-05-14T04:53:38;101448.06;;;20.38;53.04
62617;BME280;62539;51.190;6.808;2023-05-14T04:56:04;101447.13;;;20.39;53.34
62617;BME280;62539;51.190;6.808;2023-05-14T04:58:30;101448.91;;;20.39;53.38
62617;BME280;62539;51.190;6.808;2023-05-14T05:00:57;101447.13;;;20.39;53.21
62617;BME280;62539;51.190;6.808;2023-05-14T05:03:23;101452.34;;;20.41;53.08
62617;BME280;62539;51.190;6.808;2023-05-14T05:05:48;101461.16;;;20.40;53.26
62617;BME280;62539;51.190;6.808;2023-05-14T05:08:14;101454.97;;;20.41;53.25
62617;BME280;62539;51.190;6.808;2023-05-14T05:10:39;101454.13;;;20.40;53.33
62617;BME280;62539;51.190;6.808;2023-05-14T05:13:04;101454.97;;;20.41;53.17
62617;BME280;62539;51.190;6.808;2023-05-14T05:15:30;101458.44;;;20.43;53.43
62617;BME280;62539;51.190;6.808;2023-05-14T05:17:55;101458.34;;;20.46;53.15
62617;BME280;62539;51.190;6.808;2023-05-14T05:20:21;101453.84;;;20.50;53.39
62617;BME280;62539;51.190;6.808;2023-05-14T05:22:47;101459.03;;;20.53;53.43
62617;BME280;62539;51.190;6.808;2023-05-14T05:25:12;101459.88;;;20.53;53.28
62617;BME280;62539;51.190;6.808;2023-05-14T05:27:37;101461.69;;;20.51;53.48
62617;BME280;62539;51.190;6.808;2023-05-14T05:30:03;101466.97;;;20.51;53.45
62617;BME280;62539;51.190;6.808;2023-05-14T05:32:29;101472.22;;;20.51;53.25
62617;BME280;62539;51.190;6.808;2023-05-14T05:34:55;101466.09;;;20.51;53.45
62617;BME280;62539;51.190;6.808;2023-05-14T05:37:21;101473.13;;;20.50;53.24
62617;BME280;62539;51.190;6.808;2023-05-14T05:39:46;101469.66;;;20.50;53.18
62617;BME280;62539;51.190;6.808;2023-05-14T05:42:12;101468.78;;;20.49;53.49
62617;BME280;62539;51.190;6.808;2023-05-14T05:44:38;101470.50;;;20.50;53.47
62617;BME280;62539;51.190;6.808;2023-05-14T05:47:03;101466.09;;;20.51;53.23
62617;BME280;62539;51.190;6.808;2023-05-14T05:49:29;101470.47;;;20.52;53.19
62617;BME280;62539;51.190;6.808;2023-05-14T05:51:55;101473.94;;;20.52;53.16
62617;BME280;62539;51.190;6.808;2023-05-14T05:54:21;101468.69;;;20.52;53.54
62617;BME280;62539;51.190;6.808;2023-05-14T05:56:48;101471.31;;;20.52;53.48
62617;BME280;62539;51.190;6.808;2023-05-14T05:59:13;101475.69;;;20.53;53.59
62617;BME280;62539;51.190;6.808;2023-05-14T06:01:38;101469.50;;;20.54;53.49
62617;BME280;62539;51.190;6.808;2023-05-14T06:04:05;101466.84;;;20.54;53.33
62617;BME280;62539;51.190;6.808;2023-05-14T06:06:30;101480.03;;;20.54;53.36
62617;BME280;62539;51.190;6.808;2023-05-14T06:08:57;101481.75;;;20.55;53.30
62617;BME280;62539;51.190;6.808;2023-05-14T06:11:22;101484.41;;;20.55;53.63
62617;BME280;62539;51.190;6.808;2023-05-14T06:13:48;101479.94;;;20.58;53.56
62617;BME280;62539;51.190;6.808;2023-05-14T06:16:13;101477.31;;;20.58;53.39
62617;BME280;62539;51.190;6.808;2023-05-14T06:18:38;101480.75;;;20.60;53.49
62617;BME280;62539;51.190;6.808;2023-05-14T06:21:04;101486.03;;;20.60;53.68
62617;BME280;62539;51.190;6.808;2023-05-14T06:23:29;101482.47;;;20.61;53.72
62617;BME280;62539;51.190;6.808;2023-05-14T06:25:56;101484.19;;;20.62;53.70
62617;BME280;62539;51.190;6.808;2023-05-14T06:28:21;101485.94;;;20.63;53.79
62617;BME280;62539;51.190;6.808;2023-05-14T06:30:49;101482.38;;;20.64;53.58
62617;BME280;62539;51.190;6.808;2023-05-14T06:33:15;101485.00;;;20.64;53.65
62617;BME280;62539;51.190;6.808;2023-05-14T06:35:40;101484.09;;;20.65;53.89
62617;BME280;62539;51.190;6.808;2023-05-14T06:38:06;101484.97;;;20.65;53.74
62617;BME280;62539;51.190;6.808;2023-05-14T06:40:31;101480.56;;;20.66;53.68
62617;BME280;62539;51.190;6.808;2023-05-14T06:42:56;101486.72;;;20.66;53.75
62617;BME280;62539;51.190;6.808;2023-05-14T06:45:22;101489.28;;;20.68;53.83
62617;BME280;62539;51.190;6.808;2023-05-14T06:47:47;101479.63;;;20.68;53.61
62617;BME280;62539;51.190;6.808;2023-05-14T06:50:13;101485.72;;;20.69;53.73
62617;BME280;62539;51.190;6.808;2023-05-14T06:52:38;101481.34;;;20.69;53.79
62617;BME280;62539;51.190;6.808;2023-05-14T06:55:04;101478.63;;;20.71;53.70
62617;BME280;62539;51.190;6.808;2023-05-14T06:57:29;101476.88;;;20.71;53.83
62617;BME280;62539;51.190;6.808;2023-05-14T06:59:55;101478.59;;;20.73;53.84
62617;BME280;62539;51.190;6.808;2023-05-14T07:02:21;101469.78;;;20.74;53.57
62617;BME280;62539;51.190;6.808;2023-05-14T07:04:46;101471.44;;;20.76;53.69
62617;BME280;62539;51.190;6.808;2023-05-14T07:07:12;101477.59;;;20.77;53.65
62617;BME280;62539;51.190;6.808;2023-05-14T07:09:40;101471.38;;;20.79;54.09
62617;BME280;62539;51.190;6.808;2023-05-14T07:12:06;101457.28;;;20.80;53.84
62617;BME280;62539;51.190;6.808;2023-05-14T07:14:32;101463.44;;;20.81;53.83
62617;BME280;62539;51.190;6.808;2023-05-14T07:16:58;101462.44;;;20.83;53.97
62617;BME280;62539;51.190;6.808;2023-05-14T07:19:24;101462.44;;;20.83;54.03
62617;BME280;62539;51.190;6.808;2023-05-14T07:21:52;101469.44;;;20.84;53.72
62617;BME280;62539;51.190;6.808;2023-05-14T07:24:18;101465.88;;;20.85;53.88
62617;BME280;62539;51.190;6.808;2023-05-14T07:26:43;101468.44;;;20.89;54.09
62617;BME280;62539;51.190;6.808;2023-05-14T07:29:09;101471.03;;;20.90;53.76
62617;BME280;62539;51.190;6.808;2023-05-14T07:31:34;101466.50;;;20.94;53.94
62617;BME280;62539;51.190;6.808;2023-05-14T07:34:00;101464.63;;;20.97;54.10
62617;BME280;62539;51.190;6.808;2023-05-14T07:36:25;101474.19;;;21.00;53.88
62617;BME280;62539;51.190;6.808;2023-05-14T07:38:51;101466.19;;;21.03;53.84
62617;BME280;62539;51.190;6.808;2023-05-14T07:41:16;101471.34;;;21.06;53.87
62617;BME280;62539;51.190;6.808;2023-05-14T07:43:42;101472.16;;;21.08;53.98
62617;BME280;62539;51.190;6.808;2023-05-14T07:46:07;101473.91;;;21.09;53.81
62617;BME280;62539;51.190;6.808;2023-05-14T07:48:33;101471.22;;;21.11;53.73
62617;BME280;62539;51.190;6.808;2023-05-14T07:50:58;101473.78;;;21.12;53.87
62617;BME280;62539;51.190;6.808;2023-05-14T07:53:24;101473.78;;;21.12;53.71
62617;BME280;62539;51.190;6.808;2023-05-14T07:55:50;101473.69;;;21.15;53.42
62617;BME280;62539;51.190;6.808;2023-05-14T07:58:16;101463.13;;;21.15;53.22
62617;BME280;62539;51.190;6.808;2023-05-14T08:00:41;101468.38;;;21.17;52.87
62617;BME280;62539;51.190;6.808;2023-05-14T08:03:06;101470.09;;;21.18;52.83
62617;BME280;62539;51.190;6.808;2023-05-14T08:05:32;101467.38;;;21.20;53.21
62617;BME280;62539;51.190;6.808;2023-05-14T08:07:58;101470.91;;;21.20;53.25
62617;BME280;62539;51.190;6.808;2023-05-14T08:10:23;101469.09;;;21.21;53.14
62617;BME280;62539;51.190;6.808;2023-05-14T08:12:48;101469.91;;;21.23;53.30
62617;BME280;62539;51.190;6.808;2023-05-14T08:15:14;101471.63;;;21.24;53.00
62617;BME280;62539;51.190;6.808;2023-05-14T08:17:39;101470.72;;;21.25;52.81
62617;BME280;62539;51.190;6.808;2023-05-14T08:20:05;101466.25;;;21.27;52.82
62617;BME280;62539;51.190;6.808;2023-05-14T08:22:31;101468.81;;;21.28;52.88
62617;BME280;62539;51.190;6.808;2023-05-14T08:24:56;101467.88;;;21.31;52.86
62617;BME280;62539;51.190;6.808;2023-05-14T08:27:22;101464.31;;;21.32;53.19
62617;BME280;62539;51.190;6.808;2023-05-14T08:29:47;101466.84;;;21.35;53.12
62617;BME280;62539;51.190;6.808;2023-05-14T08:32:13;101462.38;;;21.37;53.00
62617;BME280;62539;51.190;6.808;2023-05-14T08:34:39;101457.00;;;21.40;52.78
62617;BME280;62539;51.190;6.808;2023-05-14T08:37:04;101458.72;;;21.41;52.31
62617;BME280;62539;51.190;6.808;2023-05-14T08:39:30;101447.25;;;21.42;52.33
62617;BME280;62539;51.190;6.808;2023-05-14T08:41:56;101451.59;;;21.43;52.30
62617;BME280;62539;51.190;6.808;2023-05-14T08:44:47;101456.88;;;21.43;51.72
62617;BME280;62539;51.190;6.808;2023-05-14T08:47:17;101442.75;;;21.44;51.57
62617;BME280;62539;51.190;6.808;2023-05-14T08:49:48;101442.75;;;21.44;51.68
62617;BME280;62539;51.190;6.808;2023-05-14T08:52:19;101436.56;;;21.46;51.48
62617;BME280;62539;51.190;6.808;2023-05-14T08:54:47;101435.66;;;21.47;51.52
62617;BME280;62539;51.190;6.808;2023-05-14T08:57:17;101439.13;;;21.47;51.55
62617;BME280;62539;51.190;6.808;2023-05-14T08:59:44;101427.66;;;21.48;51.10
62617;BME280;62539;51.190;6.808;2023-05-14T09:02:11;101434.66;;;21.49;50.93
62617;BME280;62539;51.190;6.808;2023-05-14T09:04:39;101433.75;;;21.50;50.97
62617;BME280;62539;51.190;6.808;2023-05-14T09:07:06;101425.81;;;21.50;50.76
62617;BME280;62539;51.190;6.808;2023-05-14T09:09:31;101430.16;;;21.53;50.70
62617;BME280;62539;51.190;6.808;2023-05-14T09:11:57;101426.59;;;21.54;50.33
62617;BME280;62539;51.190;6.808;2023-05-14T09:14:23;101425.59;;;21.56;50.39
62617;BME280;62539;51.190;6.808;2023-05-14T09:16:49;101427.22;;;21.61;50.58
62617;BME280;62539;51.190;6.808;2023-05-14T09:19:16;101420.13;;;21.63;49.88
62617;BME280;62539;51.190;6.808;2023-05-14T09:21:44;101413.88;;;21.65;49.71
62617;BME280;62539;51.190;6.808;2023-05-14T09:24:21;101416.44;;;21.67;50.15
62617;BME280;62539;51.190;6.808;2023-05-14T09:26:52;101423.34;;;21.71;50.18
62617;BME280;62539;51.190;6.808;2023-05-14T09:29:25;101416.19;;;21.75;49.90
62617;BME280;62539;51.190;6.808;2023-05-14T09:31:55;101412.53;;;21.77;50.15
62617;BME280;62539;51.190;6.808;2023-05-14T09:34:31;101408.88;;;21.81;49.98
62617;BME280;62539;51.190;6.808;2023-05-14T09:37:08;101407.03;;;21.83;49.89
62617;BME280;62539;51.190;6.808;2023-05-14T09:39:35;101403.44;;;21.86;49.94
62617;BME280;62539;51.190;6.808;2023-05-14T09:42:02;101399.88;;;21.87;50.02
62617;BME280;62539;51.190;6.808;2023-05-14T09:44:28;101398.03;;;21.89;49.97
62617;BME280;62539;51.190;6.808;2023-05-14T09:46:54;101396.97;;;21.93;50.25
62617;BME280;62539;51.190;6.808;2023-05-14T09:49:20;101386.34;;;21.95;50.09
62617;BME280;62539;51.190;6.808;2023-05-14T09:51:47;101386.22;;;21.98;50.21
62617;BME280;62539;51.190;6.808;2023-05-14T09:54:13;101383.53;;;21.99;50.22
62617;BME280;62539;51.190;6.808;2023-05-14T09:56:39;101380.78;;;22.02;50.23
62617;BME280;62539;51.190;6.808;2023-05-14T09:59:05;101378.00;;;22.06;49.93
62617;BME280;62539;51.190;6.808;2023-05-14T10:01:30;101374.38;;;22.08;50.19
62617;BME280;62539;51.190;6.808;2023-05-14T10:03:57;101373.41;;;22.11;49.82
62617;BME280;62539;51.190;6.808;2023-05-14T10:06:24;101371.69;;;22.10;50.28
62617;BME280;62539;51.190;6.808;2023-05-14T10:08:55;101365.53;;;22.09;50.23
62617;BME280;62539;51.190;6.808;2023-05-14T10:11:27;101371.69;;;22.10;50.36
62617;BME280;62539;51.190;6.808;2023-05-14T10:16:46;101378.72;;;22.09;50.11
62617;BME280;62539;51.190;6.808;2023-05-14T10:19:15;101370.63;;;22.14;50.00
62617;BME280;62539;51.190;6.808;2023-05-14T10:21:44;101357.19;;;22.20;49.92
62617;BME280;62539;51.190;6.808;2023-05-14T10:24:17;101363.97;;;22.26;50.22
62617;BME280;62539;51.190;6.808;2023-05-14T10:26:44;101358.50;;;22.30;50.06
62617;BME280;62539;51.190;6.808;2023-05-14T10:29:09;101353.94;;;22.34;50.02
62617;BME280;62539;51.190;6.808;2023-05-14T10:37:11;101351.69;;;22.47;49.43
62617;BME280;62539;51.190;6.808;2023-05-14T10:39:44;101359.63;;;22.47;49.59
62617;BME280;62539;51.190;6.808;2023-05-14T10:42:12;101344.69;;;22.46;49.56
62617;BME280;62539;51.190;6.808;2023-05-14T10:44:56;101347.34;;;22.46;49.72
62617;BME280;62539;51.190;6.808;2023-05-14T10:47:25;101327.91;;;22.47;49.89
62617;BME280;62539;51.190;6.808;2023-05-14T10:49:53;101340.19;;;22.48;49.54
62617;BME280;62539;51.190;6.808;2023-05-14T10:52:21;101335.72;;;22.50;49.92
62617;BME280;62539;51.190;6.808;2023-05-14T10:54:58;101332.06;;;22.53;49.78
62617;BME280;62539;51.190;6.808;2023-05-14T10:57:27;101335.44;;;22.56;49.38
62617;BME280;62539;51.190;6.808;2023-05-14T11:00:01;101321.97;;;22.63;49.32
62617;BME280;62539;51.190;6.808;2023-05-14T11:02:34;101321.69;;;22.69;49.43
62617;BME280;62539;51.190;6.808;2023-05-14T11:05:06;101325.00;;;22.74;49.12
62617;BME280;62539;51.190;6.808;2023-05-14T11:08:08;101321.44;;;22.75;49.37
62617;BME280;62539;51.190;6.808;2023-05-14T11:10:28;101319.44;;;22.80;49.27
62617;BME280;62539;51.190;6.808;2023-05-14T11:12:55;101309.53;;;22.85;49.10
62617;BME280;62539;51.190;6.808;2023-05-14T11:15:24;101309.53;;;22.85;49.29
62617;BME280;62539;51.190;6.808;2023-05-14T11:17:51;101310.38;;;22.86;49.04
62617;BME280;62539;51.190;6.808;2023-05-14T11:20:18;101311.25;;;22.86;49.21
62617;BME280;62539;51.190;6.808;2023-05-14T11:22:47;101316.59;;;22.85;49.00
62617;BME280;62539;51.190;6.808;2023-05-14T11:25:13;101310.19;;;22.90;49.12
62617;BME280;62539;51.190;6.808;2023-05-14T11:27:41;101315.06;;;23.00;48.69
62617;BME280;62539;51.190;6.808;2023-05-14T11:30:13;101312.06;;;23.08;48.49
62617;BME280;62539;51.190;6.808;2023-05-14T11:32:38;101301.31;;;23.11;48.56
62617;BME280;62539;51.190;6.808;2023-05-14T11:35:05;101300.13;;;23.18;48.46
62617;BME280;62539;51.190;6.808;2023-05-14T11:37:31;101300.78;;;23.23;48.40
62617;BME280;62539;51.190;6.808;2023-05-14T11:39:58;101304.03;;;23.30;48.48
62617;BME280;62539;51.190;6.808;2023-05-14T11:42:25;101293.06;;;23.38;48.18
62617;BME280;62539;51.190;6.808;2023-05-14T11:44:51;101285.63;;;23.46;48.11
62617;BME280;62539;51.190;6.808;2023-05-14T11:47:21;101295.00;;;23.53;48.04
62617;BME280;62539;51.190;6.808;2023-05-14T11:49:47;101278.75;;;23.61;47.50
62617;BME280;62539;51.190;6.808;2023-05-14T11:52:14;101278.31;;;23.70;47.38
62617;BME280;62539;51.190;6.808;2023-05-14T11:54:43;101271.69;;;23.79;47.41
62617;BME280;62539;51.190;6.808;2023-05-14T11:57:10;101273.88;;;23.88;47.12
62617;BME280;62539;51.190;6.808;2023-05-14T11:59:38;101276.09;;;23.98;47.10
62617;BME280;62539;51.190;6.808;2023-05-14T12:02:09;101266.84;;;24.06;46.55
62617;BME280;62539;51.190;6.808;2023-05-14T12:04:35;101278.84;;;24.14;46.52
62617;BME280;62539;51.190;6.808;2023-05-14T12:07:07;101272.28;;;24.21;46.34
62617;BME280;62539;51.190;6.808;2023-05-14T12:09:43;101259.50;;;24.29;46.43
62617;BME280;62539;51.190;6.808;2023-05-14T12:12:18;101261.16;;;24.32;46.24
62617;BME280;62539;51.190;6.808;2023-05-14T12:14:46;101253.88;;;24.35;46.28
62617;BME280;62539;51.190;6.808;2023-05-14T12:17:21;101259.34;;;24.32;46.34
62617;BME280;62539;51.190;6.808;2023-05-14T12:19:50;101254.50;;;24.23;46.25
62617;BME280;62539;51.190;6.808;2023-05-14T12:22:21;101259.28;;;24.16;46.23
62617;BME280;62539;51.190;6.808;2023-05-14T12:24:54;101258.81;;;24.08;46.33
62617;BME280;62539;51.190;6.808;2023-05-14T12:27:28;101254.66;;;24.02;46.46
62617;BME280;62539;51.190;6.808;2023-05-14T12:30:01;101254.00;;;23.97;46.66
62617;BME280;62539;51.190;6.808;2023-05-14T12:32:32;101249.69;;;24.14;46.29
62617;BME280;62539;51.190;6.808;2023-05-14T12:34:58;101252.66;;;24.25;46.11
62617;BME280;62539;51.190;6.808;2023-05-14T12:37:25;101252.00;;;24.37;45.79
62617;BME280;62539;51.190;6.808;2023-05-14T12:39:51;101243.25;;;24.53;45.86
62617;BME280;62539;51.190;6.808;2023-05-14T12:42:16;101238.19;;;24.66;45.28
62617;BME280;62539;51.190;6.808;2023-05-14T12:44:42;101235.75;;;24.79;44.92
62617;BME280;62539;51.190;6.808;2023-05-14T12:47:07;101240.22;;;24.94;45.00
62617;BME280;62539;51.190;6.808;2023-05-14T12:49:33;101234.41;;;25.04;44.65
62617;BME280;62539;51.190;6.808;2023-05-14T12:51:58;101232.00;;;25.15;44.64
62617;BME280;62539;51.190;6.808;2023-05-14T12:54:24;101235.81;;;25.27;44.26
62617;BME280;62539;51.190;6.808;2023-05-14T12:56:50;101229.88;;;25.38;43.88
62617;BME280;62539;51.190;6.808;2023-05-14T12:59:15;101223.13;;;25.48;43.54